createdAt,value
2019-02-21T00:00:42.636Z,95936.37
2019-02-21T00:03:12.241Z,95937.38
2019-02-21T00:05:41.731Z,95938.77
2019-02-21T00:08:11.257Z,95940.44
2019-02-21T00:10:40.776Z,95939.70
2019-02-21T00:13:10.353Z,95933.98
2019-02-21T00:15:39.848Z,95935.67
2019-02-21T00:18:09.345Z,95948.28
2019-02-21T00:20:38.863Z,95946.47
2019-02-21T00:23:08.373Z,95939.27
2019-02-21T00:25:37.882Z,95941.31
2019-02-21T00:28:07.366Z,95938.08
2019-02-21T00:33:37.651Z,95939.19
2019-02-21T00:36:07.183Z,95947.31
2019-02-21T00:38:36.694Z,95945.91
2019-02-21T00:41:06.558Z,95942.59
2019-02-21T00:43:36.133Z,95946.47
2019-02-21T00:46:05.627Z,95944.27
2019-02-21T00:48:35.159Z,95942.80
2019-02-21T00:54:05.572Z,95904.01
2019-02-21T00:56:35.071Z,95961.50
2019-02-21T00:59:04.656Z,95956.97
2019-02-21T01:01:34.150Z,95956.78
2019-02-21T01:04:03.730Z,95953.02
2019-02-21T01:06:52.553Z,95958.19
2019-02-21T01:09:41.399Z,95962.44
2019-02-21T01:12:10.887Z,95957.91
2019-02-21T01:14:40.409Z,95953.76
2019-02-21T01:17:09.905Z,95957.67
2019-02-21T01:19:58.760Z,95955.07
2019-02-21T01:22:28.252Z,95952.28
2019-02-21T01:24:57.766Z,95950.27
2019-02-21T01:27:27.269Z,95959.14
2019-02-21T01:29:56.774Z,95960.59
2019-02-21T01:32:26.273Z,95957.50
2019-02-21T01:34:55.785Z,95956.11
2019-02-21T01:37:25.271Z,95958.34
2019-02-21T01:39:55.002Z,95962.30
2019-02-21T01:42:24.561Z,95957.89
2019-02-21T01:45:13.411Z,95959.36
2019-02-21T01:47:42.915Z,95961.84
2019-02-21T01:50:12.425Z,95962.39
2019-02-21T01:52:41.943Z,95963.94
2019-02-21T01:55:11.433Z,95964.04
2019-02-21T01:57:41.932Z,95960.90
2019-02-21T02:00:13.200Z,95968.75
2019-02-21T02:02:42.715Z,95965.16
2019-02-21T02:05:12.284Z,95960.72
2019-02-21T02:07:41.777Z,95966.63
2019-02-21T02:10:11.427Z,95967.18
2019-02-21T02:13:00.278Z,95961.08
2019-02-21T02:15:29.788Z,95965.12
2019-02-21T02:17:59.296Z,95968.05
2019-02-21T02:20:28.803Z,95958.77
2019-02-21T02:22:58.298Z,95962.19
2019-02-21T02:25:27.846Z,95969.63
2019-02-21T02:27:57.362Z,95970.70
2019-02-21T02:30:27.923Z,95967.98
2019-02-21T02:32:57.418Z,95973.64
2019-02-21T02:35:26.947Z,95974.66
2019-02-21T02:37:56.434Z,95974.44
2019-02-21T02:40:25.921Z,95976.92
2019-02-21T02:42:56.263Z,95978.03
2019-02-21T02:45:25.767Z,95979.95
2019-02-21T02:47:55.266Z,95982.00
2019-02-21T02:50:24.788Z,95988.69
2019-02-21T02:52:54.305Z,95981.27
2019-02-21T02:55:24.619Z,95979.58
2019-02-21T02:57:54.142Z,95986.60
2019-02-21T03:00:23.656Z,95979.41
2019-02-21T03:02:53.192Z,95987.44
2019-02-21T03:05:22.700Z,95991.59
2019-02-21T03:08:12.202Z,95991.94
2019-02-21T03:10:41.720Z,95847.27
2019-02-21T03:13:30.566Z,95990.25
2019-02-21T03:16:00.105Z,96003.60
2019-02-21T03:18:29.618Z,96001.81
2019-02-21T03:20:59.137Z,95996.53
2019-02-21T03:23:28.645Z,95999.72
2019-02-21T03:25:58.161Z,95997.60
2019-02-21T03:28:27.660Z,95996.37
2019-02-21T03:30:57.201Z,95989.51
2019-02-21T03:33:26.688Z,95987.70
2019-02-21T03:35:56.767Z,95988.11
2019-02-21T03:38:26.270Z,95991.69
2019-02-21T03:40:55.764Z,95993.89
2019-02-21T03:43:25.301Z,95998.03
2019-02-21T03:45:54.817Z,95997.66
2019-02-21T03:48:25.207Z,95996.70
2019-02-21T03:50:54.721Z,95997.77
2019-02-21T03:53:24.218Z,96003.59
2019-02-21T03:56:13.070Z,96005.11
2019-02-21T03:58:55.759Z,96008.59
2019-02-21T04:01:44.682Z,96005.23
2019-02-21T04:04:14.181Z,95964.19
2019-02-21T04:06:43.804Z,96009.45
2019-02-21T04:09:13.340Z,96016.14
2019-02-21T04:11:42.887Z,96017.30
2019-02-21T04:14:12.478Z,96020.14
2019-02-21T04:16:42.073Z,96017.47
2019-02-21T04:19:11.995Z,96027.08
2019-02-21T04:21:41.530Z,96014.25
2019-02-21T04:24:11.039Z,96012.44
2019-02-21T04:26:40.555Z,96012.83
2019-02-21T04:29:10.165Z,96008.90
2019-02-21T04:31:40.440Z,96012.50
2019-02-21T04:34:09.955Z,96014.50
2019-02-21T04:36:58.809Z,96011.50
2019-02-21T04:39:28.306Z,95840.61
2019-02-21T04:42:17.169Z,96003.64
2019-02-21T04:44:59.481Z,95848.48
2019-02-21T04:47:29.005Z,96009.29
2019-02-21T04:49:58.517Z,96008.63
2019-02-21T04:52:28.034Z,96005.50
2019-02-21T04:54:57.531Z,96003.26
2019-02-21T04:57:27.047Z,96008.86
2019-02-21T04:59:56.576Z,96013.03
2019-02-21T05:02:29.560Z,96022.67
2019-02-21T05:05:17.800Z,96023.93
2019-02-21T05:07:58.432Z,96022.44
2019-02-21T05:13:49.040Z,96025.69
2019-02-21T05:16:18.565Z,96033.06
2019-02-21T05:18:48.103Z,96028.52
2019-02-21T05:21:17.647Z,96029.80
2019-02-21T05:23:47.235Z,96027.81
2019-02-21T05:29:16.917Z,96022.46
2019-02-21T05:31:48.060Z,96027.08
2019-02-21T05:34:19.215Z,96033.42
2019-02-21T05:39:55.450Z,96037.53
2019-02-21T05:42:26.627Z,96040.84
2019-02-21T05:45:28.282Z,96032.77
2019-02-21T05:48:02.506Z,96043.58
2019-02-21T05:50:33.672Z,96038.58
2019-02-21T05:53:07.470Z,96040.31
2019-02-21T05:55:38.680Z,96042.38
2019-02-21T06:01:11.887Z,96046.45
2019-02-21T06:03:45.479Z,96044.95
2019-02-21T06:06:31.660Z,96043.66
2019-02-21T06:09:11.599Z,96051.59
2019-02-21T06:11:57.466Z,96053.58
2019-02-21T06:14:59.026Z,96063.18
2019-02-21T06:20:29.600Z,96054.35
2019-02-21T06:23:09.569Z,96057.53
2019-02-21T06:25:51.144Z,96061.59
2019-02-21T06:28:19.383Z,96068.87
2019-02-21T06:30:56.594Z,96072.20
2019-02-21T06:33:28.262Z,96069.11
2019-02-21T06:35:57.317Z,96074.27
2019-02-21T06:38:26.837Z,96075.25
2019-02-21T06:40:56.339Z,96082.35
2019-02-21T06:43:25.854Z,96081.39
2019-02-21T06:45:57.931Z,96077.11
2019-02-21T06:48:26.628Z,96070.23
2019-02-21T06:50:56.146Z,96067.23
2019-02-21T06:53:25.680Z,96056.66
2019-02-21T06:55:55.207Z,96054.90
2019-02-21T06:58:24.711Z,96048.80
2019-02-21T07:00:54.859Z,96044.52
2019-02-21T07:03:24.398Z,96046.48
2019-02-21T07:05:53.886Z,96044.64
2019-02-21T07:08:25.199Z,96052.07
2019-02-21T07:11:05.415Z,96047.86
2019-02-21T07:13:27.070Z,96053.23
2019-02-21T07:15:58.442Z,96059.86
2019-02-21T07:18:28.920Z,96063.25
2019-02-21T07:20:58.651Z,96062.96
2019-02-21T07:23:32.693Z,96060.37
2019-02-21T07:26:19.197Z,96062.42
2019-02-21T07:28:48.714Z,96066.97
2019-02-21T07:31:28.057Z,96065.85
2019-02-21T07:33:49.430Z,96071.39
2019-02-21T07:36:18.948Z,96069.66
2019-02-21T07:38:48.456Z,96079.52
2019-02-21T07:41:18.798Z,96072.72
2019-02-21T07:43:48.357Z,96071.26
2019-02-21T07:46:17.905Z,96076.76
2019-02-21T07:48:47.372Z,96073.00
2019-02-21T07:51:16.896Z,96071.27
2019-02-21T07:53:46.404Z,96078.23
2019-02-21T07:56:15.929Z,96083.61
2019-02-21T07:58:45.442Z,96082.64
2019-02-21T08:01:17.350Z,96079.30
2019-02-21T08:03:48.528Z,96074.89
2019-02-21T08:06:19.902Z,96072.08
2019-02-21T08:12:10.568Z,96071.34
2019-02-21T08:14:40.078Z,96069.05
2019-02-21T08:17:09.582Z,96068.06
2019-02-21T08:19:39.091Z,96073.27
2019-02-21T08:22:08.609Z,96078.63
2019-02-21T08:24:38.118Z,96076.95
2019-02-21T08:27:07.850Z,96075.47
2019-02-21T08:29:37.388Z,96075.13
2019-02-21T08:32:06.947Z,96073.45
2019-02-21T08:34:40.798Z,96074.27
2019-02-21T08:37:10.295Z,96068.89
2019-02-21T08:39:40.007Z,96072.75
2019-02-21T08:42:09.495Z,96068.17
2019-02-21T08:44:38.991Z,96071.92
2019-02-21T08:47:08.500Z,96070.31
2019-02-21T08:49:38.015Z,96080.82
2019-02-21T08:52:07.532Z,96073.77
2019-02-21T08:54:37.042Z,96071.08
2019-02-21T08:57:06.565Z,96074.53
2019-02-21T08:59:36.146Z,96068.41
2019-02-21T09:02:05.798Z,96067.19
2019-02-21T09:04:35.351Z,96063.30
2019-02-21T09:07:06.173Z,96065.48
2019-02-21T09:09:35.759Z,96068.22
2019-02-21T09:12:05.796Z,96060.94
2019-02-21T09:14:35.422Z,96064.03
2019-02-21T09:17:04.930Z,96066.45
2019-02-21T09:19:36.737Z,96060.89
2019-02-21T09:22:06.021Z,96059.63
2019-02-21T09:24:40.106Z,96059.98
2019-02-21T09:27:26.058Z,96060.61
2019-02-21T09:29:56.284Z,96057.42
2019-02-21T09:32:25.781Z,96057.66
2019-02-21T09:34:55.303Z,96061.92
2019-02-21T09:37:24.791Z,96071.34
2019-02-21T09:39:54.310Z,96070.63
2019-02-21T09:42:24.710Z,96067.06
2019-02-21T09:45:34.443Z,96066.30
2019-02-21T09:48:04.007Z,96065.94
2019-02-21T09:50:33.759Z,96063.75
2019-02-21T09:53:03.256Z,96065.49
2019-02-21T09:55:33.348Z,96068.09
2019-02-21T09:58:03.092Z,96080.32
2019-02-21T10:00:32.641Z,96077.43
2019-02-21T10:03:02.135Z,96081.78
2019-02-21T10:06:10.196Z,96083.50
2019-02-21T10:08:39.696Z,96088.09
2019-02-21T10:11:11.352Z,96083.65
2019-02-21T10:13:40.442Z,96078.20
2019-02-21T10:16:09.947Z,96075.80
2019-02-21T10:18:39.472Z,96080.05
2019-02-21T10:21:09.062Z,96076.25
2019-02-21T10:23:38.583Z,96072.83
2019-02-21T10:26:27.427Z,96066.89
2019-02-21T10:28:56.935Z,96066.63
2019-02-21T10:31:26.454Z,96069.46
2019-02-21T10:34:15.323Z,96062.73
2019-02-21T10:36:44.839Z,96066.80
2019-02-21T10:39:14.408Z,96070.30
2019-02-21T10:41:43.925Z,96061.79
2019-02-21T10:44:13.429Z,96062.60
2019-02-21T10:47:02.292Z,96061.18
2019-02-21T10:49:31.786Z,96061.02
2019-02-21T10:52:01.301Z,96063.19
2019-02-21T10:54:30.803Z,96061.50
2019-02-21T10:57:00.325Z,96058.78
2019-02-21T10:59:29.821Z,96051.73
2019-02-21T11:01:59.420Z,96047.30
2019-02-21T11:04:28.916Z,96045.70
2019-02-21T11:06:58.496Z,96043.50
2019-02-21T11:09:28.092Z,96045.87
2019-02-21T11:11:57.683Z,96038.76
2019-02-21T11:14:27.669Z,96040.00
2019-02-21T11:16:57.265Z,96033.45
2019-02-21T11:19:26.790Z,96027.31
2019-02-21T11:21:56.299Z,96029.08
2019-02-21T11:24:25.798Z,96034.14
2019-02-21T11:26:56.162Z,96024.06
2019-02-21T11:29:39.009Z,96020.02
2019-02-21T11:32:08.792Z,95901.05
2019-02-21T11:34:38.292Z,96010.91
2019-02-21T11:37:07.806Z,96011.37
2019-02-21T11:39:37.409Z,96017.33
2019-02-21T11:42:26.281Z,96007.48
2019-02-21T11:44:55.778Z,95904.41
2019-02-21T11:47:25.293Z,96002.14
2019-02-21T11:49:54.807Z,95996.78
2019-02-21T11:52:24.368Z,96001.53
2019-02-21T11:54:53.866Z,96000.05
2019-02-21T11:57:23.379Z,95995.42
2019-02-21T11:59:52.899Z,95995.53
2019-02-21T12:02:22.453Z,96001.44
2019-02-21T12:04:51.989Z,95998.70
2019-02-21T12:07:21.519Z,95986.89
2019-02-21T12:10:31.235Z,95990.74
2019-02-21T12:13:20.095Z,95984.37
2019-02-21T12:16:02.315Z,95986.13
2019-02-21T12:18:31.828Z,95991.80
2019-02-21T12:21:01.335Z,95984.52
2019-02-21T12:23:30.845Z,95985.31
2019-02-21T12:26:00.349Z,95979.16
2019-02-21T12:28:29.857Z,95977.95
2019-02-21T12:30:59.350Z,95978.69
2019-02-21T12:33:29.474Z,95974.88
2019-02-21T12:35:59.653Z,95975.29
2019-02-21T12:38:29.223Z,95978.11
2019-02-21T12:40:58.730Z,95976.64
2019-02-21T12:43:28.241Z,95979.11
2019-02-21T12:46:00.334Z,95977.22
2019-02-21T12:48:29.853Z,95980.64
2019-02-21T12:50:59.353Z,95976.63
2019-02-21T12:53:41.430Z,95978.63
2019-02-21T12:56:10.967Z,95981.73
2019-02-21T12:58:40.480Z,95979.44
2019-02-21T13:01:09.989Z,95978.73
2019-02-21T13:03:39.512Z,95980.89
2019-02-21T13:09:10.438Z,95975.45
2019-02-21T13:11:39.934Z,95972.48
2019-02-21T13:14:09.446Z,95981.16
2019-02-21T13:16:38.946Z,95980.50
2019-02-21T13:19:27.828Z,95974.45
2019-02-21T13:22:10.262Z,95927.47
2019-02-21T13:24:39.772Z,95978.27
2019-02-21T13:27:09.294Z,95974.79
2019-02-21T13:29:38.798Z,95978.61
2019-02-21T13:32:08.325Z,95969.19
2019-02-21T13:34:37.833Z,95971.14
2019-02-21T13:37:07.356Z,95971.18
2019-02-21T13:39:36.864Z,95976.86
2019-02-21T13:42:06.960Z,95974.33
2019-02-21T13:44:36.479Z,95969.86
2019-02-21T13:47:25.322Z,95967.16
2019-02-21T13:49:54.813Z,95967.84
2019-02-21T13:52:24.332Z,95964.07
2019-02-21T13:54:53.844Z,95968.63
2019-02-21T13:57:23.331Z,95967.72
2019-02-21T13:59:52.844Z,95965.12
2019-02-21T14:02:23.009Z,95964.98
2019-02-21T14:04:52.529Z,95964.09
2019-02-21T14:07:22.054Z,95969.53
2019-02-21T14:09:51.541Z,95965.58
2019-02-21T14:12:21.138Z,95965.97
2019-02-21T14:14:51.449Z,95964.29
2019-02-21T14:17:20.992Z,95963.86
2019-02-21T14:19:52.986Z,95961.30
2019-02-21T14:22:21.765Z,95956.05
2019-02-21T14:24:51.271Z,95956.84
2019-02-21T14:27:40.104Z,95952.30
2019-02-21T14:30:15.809Z,95957.45
2019-02-21T14:32:45.333Z,95951.14
2019-02-21T14:35:16.046Z,95953.10
2019-02-21T14:38:27.882Z,95949.69
2019-02-21T14:41:14.665Z,95947.52
2019-02-21T14:43:56.843Z,95942.52
2019-02-21T14:46:45.681Z,95944.61
2019-02-21T14:49:15.181Z,95949.20
2019-02-21T14:51:44.677Z,95944.61
2019-02-21T14:54:16.408Z,95948.70
2019-02-21T14:56:45.443Z,95943.02
2019-02-21T14:59:14.959Z,95939.94
2019-02-21T15:01:57.183Z,95932.88
2019-02-21T15:04:26.731Z,95929.74
2019-02-21T15:06:56.249Z,95924.78
2019-02-21T15:09:25.772Z,95933.83
2019-02-21T15:11:55.396Z,95931.37
2019-02-21T15:14:24.883Z,95934.97
2019-02-21T15:17:13.749Z,95929.75
2019-02-21T15:19:43.261Z,95922.56
2019-02-21T15:22:44.821Z,95924.98
2019-02-21T15:25:14.405Z,95927.30
2019-02-21T15:27:43.899Z,95924.16
2019-02-21T15:30:23.071Z,95923.03
2019-02-21T15:32:53.155Z,95917.91
2019-02-21T15:35:22.737Z,95919.17
2019-02-21T15:37:52.265Z,95926.08
2019-02-21T15:40:21.882Z,95923.22
2019-02-21T15:42:52.727Z,95919.77
2019-02-21T15:45:28.359Z,95920.59
2019-02-21T15:47:57.851Z,95920.41
2019-02-21T15:50:27.419Z,95913.94
2019-02-21T15:52:57.919Z,95913.89
2019-02-21T15:55:27.711Z,95913.89
2019-02-21T15:58:03.757Z,95920.23
2019-02-21T16:00:28.437Z,95915.97
2019-02-21T16:02:57.963Z,95910.28
2019-02-21T16:05:27.508Z,95913.28
2019-02-21T16:07:56.998Z,95919.14
2019-02-21T16:10:28.166Z,95917.66
2019-02-21T16:12:57.859Z,95923.34
2019-02-21T16:15:28.696Z,95921.27
2019-02-21T16:17:58.196Z,95933.67
2019-02-21T16:20:27.739Z,95936.27
2019-02-21T16:22:57.218Z,95937.12
2019-02-21T16:25:33.067Z,95928.77
2019-02-21T16:28:02.583Z,95936.77
2019-02-21T16:30:52.296Z,95944.30
2019-02-21T16:33:21.912Z,95942.89
2019-02-21T16:35:51.400Z,95946.96
2019-02-21T16:38:20.956Z,95949.53
2019-02-21T16:41:09.826Z,95950.28
2019-02-21T16:43:39.315Z,95952.00
2019-02-21T16:46:08.856Z,95948.16
2019-02-21T16:48:57.698Z,95953.58
2019-02-21T16:51:27.217Z,95963.89
2019-02-21T16:53:56.699Z,95955.77
2019-02-21T16:56:26.712Z,95961.87
2019-02-21T16:59:15.635Z,95964.72
2019-02-21T17:01:45.178Z,95956.63
2019-02-21T17:04:34.030Z,95958.73
2019-02-21T17:07:22.860Z,95859.39
2019-02-21T17:09:52.409Z,95873.02
2019-02-21T17:12:21.896Z,95969.07
2019-02-21T17:14:51.405Z,95972.62
2019-02-21T17:17:21.012Z,95979.55
2019-02-21T17:19:50.531Z,95987.27
2019-02-21T17:22:51.865Z,95989.66
2019-02-21T17:25:40.717Z,95988.00
2019-02-21T17:28:23.566Z,95988.47
2019-02-21T17:30:53.084Z,95992.82
2019-02-21T17:33:41.920Z,95997.71
2019-02-21T17:36:11.435Z,96004.34
2019-02-21T17:38:40.942Z,96003.88
2019-02-21T17:41:10.469Z,96006.13
2019-02-21T17:43:39.986Z,96001.24
2019-02-21T17:46:09.518Z,96007.18
2019-02-21T17:48:39.014Z,96016.84
2019-02-21T17:51:08.526Z,96020.38
2019-02-21T17:53:38.045Z,96021.97
2019-02-21T17:56:07.539Z,96021.73
2019-02-21T17:58:37.024Z,96026.62
2019-02-21T18:01:07.176Z,96026.63
2019-02-21T18:03:36.672Z,96030.62
2019-02-21T18:06:06.223Z,96028.38
2019-02-21T18:08:35.718Z,96031.59
2019-02-21T18:11:24.572Z,96020.81
2019-02-21T18:13:54.085Z,96022.02
2019-02-21T18:16:23.611Z,96024.34
2019-02-21T18:18:53.105Z,96014.83
2019-02-21T18:21:22.617Z,96014.23
2019-02-21T18:23:52.109Z,96015.50
2019-02-21T18:26:21.631Z,96026.50
2019-02-21T18:28:51.179Z,96028.92
2019-02-21T18:31:20.773Z,96023.57
2019-02-21T18:34:09.602Z,96023.47
2019-02-21T18:36:39.156Z,96021.59
2019-02-21T18:39:08.778Z,96018.16
2019-02-21T18:41:38.325Z,96019.05
2019-02-21T18:44:07.808Z,96025.66
2019-02-21T18:46:37.327Z,96024.41
2019-02-21T18:49:06.891Z,96026.27
2019-02-21T18:51:36.550Z,96023.21
2019-02-21T18:54:06.265Z,96027.52
2019-02-21T18:56:55.121Z,96023.83
2019-02-21T18:59:31.825Z,96030.20
2019-02-21T19:01:55.810Z,96033.28
2019-02-21T19:04:44.647Z,96036.85
2019-02-21T19:07:14.234Z,96029.98
2019-02-21T19:09:44.480Z,96032.83
2019-02-21T19:15:17.292Z,96031.38
2019-02-21T19:17:46.839Z,96037.69
2019-02-21T19:20:20.027Z,96032.34
2019-02-21T19:22:49.621Z,96035.64
2019-02-21T19:25:19.281Z,96045.48
2019-02-21T19:27:48.928Z,96049.71
2019-02-21T19:30:38.380Z,96052.44
2019-02-21T19:33:09.244Z,96057.61
2019-02-21T19:35:38.774Z,96060.47
2019-02-21T19:38:10.765Z,96062.91
2019-02-21T19:40:58.974Z,96070.92
2019-02-21T19:43:29.062Z,96072.08
2019-02-21T19:46:17.943Z,96067.71
2019-02-21T19:49:00.739Z,95931.85
2019-02-21T19:51:30.254Z,96069.25
2019-02-21T19:53:59.742Z,96077.03
2019-02-21T19:56:29.277Z,96079.89
2019-02-21T19:58:58.957Z,96080.39
2019-02-21T20:01:28.469Z,96082.54
2019-02-21T20:03:57.969Z,96088.35
2019-02-21T20:06:27.513Z,96084.03
2019-02-21T20:11:56.683Z,96084.91
2019-02-21T20:14:26.167Z,96085.38
2019-02-21T20:16:55.712Z,96088.60
2019-02-21T20:22:32.998Z,96098.16
2019-02-21T20:25:34.675Z,96097.81
2019-02-21T20:28:04.200Z,96023.44
2019-02-21T20:30:33.687Z,96106.72
2019-02-21T20:33:03.241Z,96113.22
2019-02-21T20:35:32.748Z,96106.00
2019-02-21T20:38:02.270Z,96109.95
2019-02-21T20:40:31.748Z,96114.35
2019-02-21T20:43:01.372Z,96108.29
2019-02-21T20:45:30.850Z,96110.77
2019-02-21T20:48:00.375Z,96105.95
2019-02-21T20:50:56.435Z,96104.22
2019-02-21T20:53:33.382Z,96103.73
2019-02-21T20:56:02.905Z,96038.63
2019-02-21T20:58:32.386Z,96113.63
2019-02-21T21:01:03.149Z,96120.38
2019-02-21T21:03:32.672Z,96116.84
2019-02-21T21:06:02.232Z,96119.06
2019-02-21T21:08:42.494Z,96120.25
2019-02-21T21:11:02.976Z,96128.24
2019-02-21T21:13:33.159Z,96119.91
2019-02-21T21:16:02.650Z,96120.72
2019-02-21T21:18:51.536Z,96126.20
2019-02-21T21:21:34.143Z,96129.20
2019-02-21T21:24:03.627Z,96139.38
2019-02-21T21:26:33.117Z,96133.57
2019-02-21T21:29:02.636Z,96135.58
2019-02-21T21:31:32.124Z,96134.03
2019-02-21T21:34:01.636Z,96135.53
2019-02-21T21:36:42.171Z,96137.16
2019-02-21T21:39:30.994Z,96142.29
2019-02-21T21:42:13.452Z,96148.62
2019-02-21T21:45:02.285Z,96012.42
2019-02-21T21:47:31.826Z,96139.06
2019-02-21T21:50:01.317Z,96144.48
2019-02-21T21:52:30.833Z,96149.03
2019-02-21T21:55:00.362Z,96150.45
2019-02-21T21:57:29.891Z,96145.49
2019-02-21T21:59:59.377Z,96156.33
2019-02-21T22:02:48.813Z,96158.38
2019-02-21T22:05:18.387Z,96153.53
2019-02-21T22:07:49.355Z,96153.96
2019-02-21T22:10:19.243Z,96157.78
2019-02-21T22:16:02.154Z,96159.29
2019-02-21T22:18:31.718Z,96152.09
2019-02-21T22:21:01.223Z,96147.95
2019-02-21T22:23:30.708Z,96140.69
2019-02-21T22:26:00.255Z,96139.56
2019-02-21T22:28:29.772Z,96142.33
2019-02-21T22:30:59.319Z,96142.84
2019-02-21T22:33:28.828Z,96148.20
2019-02-21T22:36:19.553Z,96142.29
2019-02-21T22:39:15.704Z,96136.72
2019-02-21T22:41:52.902Z,95987.41
2019-02-21T22:44:22.470Z,95982.34
2019-02-21T22:46:52.014Z,96146.98
2019-02-21T22:49:21.548Z,96148.88
2019-02-21T22:51:51.126Z,96142.24
2019-02-21T22:54:39.957Z,96140.62
2019-02-21T22:57:09.477Z,96140.62
2019-02-21T22:59:38.974Z,96146.91
2019-02-21T23:02:08.630Z,96143.72
2019-02-21T23:04:42.800Z,96148.36
2019-02-21T23:07:22.617Z,96147.98
2019-02-21T23:09:52.098Z,96150.59
2019-02-21T23:12:21.670Z,96148.98
2019-02-21T23:14:51.234Z,96145.55
2019-02-21T23:17:20.765Z,96150.00
2019-02-21T23:19:50.252Z,96151.97
2019-02-21T23:22:19.978Z,96146.73
2019-02-21T23:24:49.493Z,96153.19
2019-02-21T23:27:19.029Z,96151.30
2019-02-21T23:29:48.521Z,96156.03
2019-02-21T23:32:18.030Z,96159.42
2019-02-21T23:34:47.535Z,96156.41
2019-02-21T23:37:17.062Z,96153.38
2019-02-21T23:39:46.589Z,96156.41
2019-02-21T23:42:16.074Z,96151.68
2019-02-21T23:44:45.586Z,96149.57
2019-02-21T23:47:34.436Z,96154.52
2019-02-21T23:50:04.008Z,96005.88
2019-02-21T23:52:52.862Z,96151.61
2019-02-21T23:55:22.357Z,96162.62
2019-02-21T23:57:52.205Z,96171.58
